Time;durP1;ratioP1;P1;durP2;ratioP2;P2;SDS_P1;SDS_P2;PMS_P1;PMS_P2;Temp;Humidity;BMP_temperature;BMP_pressure;BME280_temperature;BME280_humidity;BME280_pressure;Samples;Min_cycle;Max_cycle;Signal;HPM_P1;HPM_P2
2022/03/25 00:01:25;;;;;;;23.27;16.02;;;18.40;39.70;17.50;102537.00;;;;5063144;28;20497;-65
2022/03/25 00:04:12;;;;;;;22.00;15.88;;;18.40;39.70;17.50;102542.00;;;;5056641;28;20099;-65
2022/03/25 00:06:58;;;;;;;22.45;16.27;;;18.40;39.70;17.50;102532.00;;;;5056894;28;20332;-65
2022/03/25 00:09:44;;;;;;;24.88;16.90;;;18.40;39.80;17.50;102531.00;;;;5057662;28;20110;-65
2022/03/25 00:12:31;;;;;;;24.48;16.17;;;18.40;39.80;17.50;102530.00;;;;5060446;28;20049;-65
2022/03/25 00:15:17;;;;;;;26.57;17.30;;;18.40;39.80;17.40;102529.00;;;;5041172;28;20045;-65
2022/03/25 00:18:03;;;;;;;24.83;17.67;;;18.40;39.90;17.40;102537.00;;;;5061892;28;20417;-65
2022/03/25 00:20:49;;;;;;;25.05;17.00;;;18.40;39.90;17.40;102531.00;;;;5060520;28;20033;-65
2022/03/25 00:23:35;;;;;;;25.08;17.45;;;18.40;39.90;17.50;102537.00;;;;5060862;28;20036;-65
2022/03/25 00:26:21;;;;;;;25.45;18.23;;;18.40;39.90;17.40;102533.00;;;;5047365;28;20068;-65
2022/03/25 00:29:07;;;;;;;25.38;18.15;;;18.40;40.00;17.50;102541.00;;;;5039770;28;20045;-65
2022/03/25 00:31:53;;;;;;;24.55;17.65;;;18.40;40.00;17.40;102539.00;;;;5057157;28;20033;-65
2022/03/25 00:34:39;;;;;;;25.35;18.10;;;18.40;40.00;17.40;102543.00;;;;5062135;28;20040;-65
2022/03/25 00:37:26;;;;;;;26.52;18.67;;;18.30;39.90;17.40;102539.00;;;;5055562;28;20053;-65
2022/03/25 00:40:12;;;;;;;26.85;19.33;;;18.40;40.00;17.40;102536.00;;;;5054405;28;20184;-65
2022/03/25 00:42:58;;;;;;;24.80;17.38;;;18.40;40.00;17.40;102535.00;;;;5053466;28;20044;-65
2022/03/25 00:45:44;;;;;;;25.98;18.58;;;18.40;40.10;17.40;102537.00;;;;5046450;28;20580;-65
2022/03/25 00:48:32;;;;;;;27.67;19.63;;;18.30;40.00;17.40;102529.00;;;;5058910;28;20044;-65
2022/03/25 00:51:18;;;;;;;26.80;19.48;;;18.30;40.10;17.40;102524.00;;;;5062229;28;20051;-65
2022/03/25 00:54:04;;;;;;;24.80;18.73;;;18.30;40.10;17.40;102521.00;;;;5059475;28;20040;-65
2022/03/25 00:56:50;;;;;;;26.70;19.17;;;18.40;40.10;17.40;102523.00;;;;5052756;28;20037;-65
2022/03/25 00:59:36;;;;;;;27.50;19.73;;;18.30;40.10;17.40;102521.00;;;;5058592;28;20090;-65
2022/03/25 01:02:22;;;;;;;26.77;19.05;;;18.30;40.10;17.40;102519.00;;;;5058785;28;20043;-65
2022/03/25 01:05:08;;;;;;;27.30;20.40;;;18.30;40.20;17.40;102518.00;;;;5058565;28;20138;-65
2022/03/25 01:07:54;;;;;;;31.60;20.05;;;18.40;40.30;17.40;102516.00;;;;5052648;28;20045;-65
2022/03/25 01:10:41;;;;;;;29.98;19.80;;;18.30;40.20;17.40;102519.00;;;;5058880;28;20074;-65
2022/03/25 01:13:32;;;;;;;28.05;20.83;;;18.30;40.30;17.40;102521.00;;;;5060514;28;20084;-65
2022/03/25 01:16:21;;;;;;;28.27;20.27;;;18.30;40.30;17.40;102521.00;;;;5056750;28;20493;-65
2022/03/25 01:19:07;;;;;;;31.45;21.88;;;18.30;40.30;17.40;102527.00;;;;5063919;28;20044;-65
2022/03/25 01:21:56;;;;;;;30.55;22.35;;;18.30;40.30;17.40;102523.00;;;;5068059;28;20040;-65
2022/03/25 01:24:43;;;;;;;30.25;21.98;;;18.30;40.40;17.40;102523.00;;;;5060613;28;20037;-65
2022/03/25 01:27:29;;;;;;;31.33;20.98;;;18.20;40.30;17.40;102526.00;;;;5057210;28;20111;-65
2022/03/25 01:30:15;;;;;;;30.92;21.85;;;18.20;40.40;17.40;102530.00;;;;5060954;28;20132;-65
2022/03/25 01:33:01;;;;;;;30.65;22.05;;;18.30;40.50;17.40;102533.00;;;;5065702;28;20049;-65
2022/03/25 01:35:47;;;;;;;30.45;21.80;;;18.30;40.40;17.40;102531.00;;;;5081751;28;20044;-65
2022/03/25 01:38:33;;;;;;;33.28;22.55;;;18.20;40.40;17.40;102532.00;;;;5051851;28;20036;-65
2022/03/25 01:41:19;;;;;;;30.52;22.45;;;18.20;40.50;17.30;102530.00;;;;5053045;28;20553;-65
2022/03/25 01:44:08;;;;;;;31.02;22.63;;;18.20;40.50;17.30;102524.00;;;;5047957;28;20045;-65
2022/03/25 01:46:55;;;;;;;33.25;22.88;;;18.20;40.50;17.30;102531.00;;;;5048543;28;20086;-65
2022/03/25 01:49:41;;;;;;;31.30;22.23;;;18.20;40.50;17.30;102521.00;;;;5048639;28;20040;-65
2022/03/25 01:52:28;;;;;;;33.53;23.27;;;18.20;40.50;17.30;102527.00;;;;5067302;28;20524;-65
2022/03/25 01:55:16;;;;;;;31.50;23.48;;;18.20;40.50;17.30;102525.00;;;;5041208;28;20048;-65
2022/03/25 01:58:06;;;;;;;32.30;21.88;;;18.20;40.50;17.30;102526.00;;;;5061258;28;20040;-65
2022/03/25 02:00:52;;;;;;;32.53;23.95;;;18.20;40.60;17.30;102529.00;;;;5059546;28;20504;-65
2022/03/25 02:03:38;;;;;;;31.77;23.77;;;18.20;40.70;17.30;102525.00;;;;5067809;28;20040;-65
2022/03/25 02:06:24;;;;;;;35.70;25.00;;;18.20;40.70;17.30;102533.00;;;;5081909;28;20572;-64
2022/03/25 02:09:10;;;;;;;34.05;24.20;;;18.20;40.70;17.30;102535.00;;;;5086446;28;20101;-65
2022/03/25 02:11:56;;;;;;;35.53;24.63;;;18.10;40.60;17.30;102522.00;;;;5077503;28;20047;-65
2022/03/25 02:14:42;;;;;;;35.83;25.20;;;18.20;40.70;17.30;102527.00;;;;5067391;28;20108;-65
2022/03/25 02:17:29;;;;;;;37.55;25.60;;;18.20;40.70;17.30;102530.00;;;;5065097;28;20064;-65
2022/03/25 02:20:15;;;;;;;34.00;24.25;;;18.20;40.70;17.30;102526.00;;;;5070602;28;20051;-65
2022/03/25 02:23:02;;;;;;;36.47;25.27;;;18.20;40.80;17.30;102525.00;;;;5087919;28;20123;-65
2022/03/25 02:25:50;;;;;;;36.00;24.55;;;18.20;40.80;17.30;102521.00;;;;5081043;28;20103;-65
2022/03/25 02:28:36;;;;;;;34.58;24.92;;;18.20;40.90;17.30;102525.00;;;;5068699;28;20044;-65
2022/03/25 02:31:23;;;;;;;35.50;24.92;;;18.10;40.80;17.30;102520.00;;;;5084612;28;20048;-65
2022/03/25 02:34:09;;;;;;;38.50;26.02;;;18.10;40.80;17.30;102522.00;;;;5067335;28;20044;-64
2022/03/25 02:36:55;;;;;;;37.42;26.23;;;18.10;40.80;17.30;102526.00;;;;5080207;28;20040;-65
2022/03/25 02:39:41;;;;;;;39.38;25.95;;;18.10;40.80;17.30;102528.00;;;;5076049;28;20093;-65
2022/03/25 02:42:27;;;;;;;38.72;26.75;;;18.20;40.90;17.30;102528.00;;;;5085154;28;20044;-65
2022/03/25 02:45:20;;;;;;;37.60;25.98;;;18.10;40.90;17.20;102520.00;;;;5081816;28;20127;-65
2022/03/25 02:48:07;;;;;;;36.42;26.13;;;18.10;40.90;17.20;102523.00;;;;5068381;28;20055;-65
2022/03/25 02:50:53;;;;;;;38.45;26.90;;;18.10;40.90;17.20;102536.00;;;;5078995;28;20455;-65
2022/03/25 02:53:39;;;;;;;38.70;26.55;;;18.10;40.90;17.20;102530.00;;;;5075573;28;20052;-65
2022/03/25 02:56:26;;;;;;;36.40;25.95;;;18.10;40.90;17.20;102526.00;;;;5081147;28;20478;-65
2022/03/25 02:59:12;;;;;;;40.50;27.27;;;18.10;41.00;17.20;102534.00;;;;5078460;28;20044;-65
2022/03/25 03:01:58;;;;;;;38.88;26.90;;;18.20;41.00;17.20;102531.00;;;;5076099;28;20036;-65
2022/03/25 03:04:44;;;;;;;43.00;27.73;;;18.10;41.00;17.20;102522.00;;;;5077801;28;20039;-65
2022/03/25 03:07:32;;;;;;;36.72;27.08;;;18.10;41.00;17.20;102531.00;;;;5075330;28;20047;-65
2022/03/25 03:10:19;;;;;;;40.90;28.27;;;18.10;41.00;17.20;102519.00;;;;5077185;28;20490;-65
2022/03/25 03:13:05;;;;;;;40.80;28.33;;;18.10;41.00;17.20;102520.00;;;;5076302;28;20123;-65
2022/03/25 03:15:51;;;;;;;41.13;27.45;;;18.10;41.00;17.20;102521.00;;;;5076844;28;20429;-65
2022/03/25 03:18:37;;;;;;;38.70;27.65;;;18.10;41.00;17.20;102519.00;;;;5079715;28;20044;-65
2022/03/25 03:21:27;;;;;;;39.90;27.55;;;18.10;41.00;17.20;102525.00;;;;5081698;28;20291;-65
2022/03/25 03:24:13;;;;;;;41.38;29.75;;;18.00;41.00;17.20;102529.00;;;;5066771;28;20036;-65
2022/03/25 03:26:59;;;;;;;39.10;28.00;;;18.10;41.10;17.20;102533.00;;;;5074126;28;20460;-65
2022/03/25 03:29:45;;;;;;;39.05;28.13;;;18.00;41.00;17.20;102526.00;;;;5079104;28;20348;-65
2022/03/25 03:32:31;;;;;;;41.33;28.17;;;18.00;41.00;17.20;102526.00;;;;5078578;28;20052;-65
2022/03/25 03:35:18;;;;;;;39.40;28.38;;;18.00;41.00;17.20;102530.00;;;;5058813;28;20044;-65
2022/03/25 03:38:04;;;;;;;39.75;28.73;;;18.00;41.00;17.20;102528.00;;;;5077498;28;20131;-65
2022/03/25 03:40:50;;;;;;;42.22;29.52;;;18.00;41.00;17.10;102526.00;;;;5071892;28;20036;-65
2022/03/25 03:43:36;;;;;;;43.20;29.65;;;18.00;41.10;17.20;102531.00;;;;5076120;28;20404;-65
2022/03/25 03:46:23;;;;;;;41.90;30.15;;;18.00;41.10;17.10;102527.00;;;;5077059;28;20044;-65
2022/03/25 03:49:09;;;;;;;44.72;30.20;;;18.00;41.20;17.20;102529.00;;;;5076057;28;20043;-65
2022/03/25 03:51:55;;;;;;;43.10;30.02;;;18.00;41.20;17.10;102524.00;;;;5073944;28;20067;-65
2022/03/25 03:54:41;;;;;;;42.58;29.88;;;18.00;41.20;17.10;102522.00;;;;5078039;28;20036;-65
2022/03/25 03:57:27;;;;;;;44.78;30.67;;;18.00;41.20;17.10;102523.00;;;;5080685;28;20082;-65
2022/03/25 04:00:13;;;;;;;46.30;32.33;;;18.00;41.20;17.10;102521.00;;;;5078465;28;20052;-65
2022/03/25 04:02:59;;;;;;;43.53;30.60;;;17.90;41.20;17.10;102524.00;;;;5080586;28;20036;-65
2022/03/25 04:05:45;;;;;;;44.08;30.52;;;17.90;41.20;17.10;102528.00;;;;5077796;28;20058;-65
2022/03/25 04:08:32;;;;;;;43.72;30.42;;;18.00;41.30;17.10;102534.00;;;;5077045;28;20044;-65
2022/03/25 04:11:18;;;;;;;44.38;30.05;;;17.90;41.10;17.00;102526.00;;;;5063056;28;20042;-65
2022/03/25 04:14:04;;;;;;;40.60;29.48;;;17.90;41.90;17.10;102522.00;;;;5065558;28;20040;-65
2022/03/25 04:16:50;;;;;;;43.60;31.02;;;17.90;41.30;17.00;102525.00;;;;5078591;28;20370;-65
2022/03/25 04:19:36;;;;;;;44.58;30.15;;;17.90;41.20;17.00;102527.00;;;;5078872;28;20040;-65
2022/03/25 04:22:23;;;;;;;46.83;31.55;;;17.90;41.30;17.00;102536.00;;;;5068013;28;20289;-65
2022/03/25 04:25:09;;;;;;;44.20;31.20;;;17.80;41.30;17.00;102529.00;;;;5072471;28;20040;-65
2022/03/25 04:27:58;;;;;;;42.08;30.70;;;17.80;41.30;17.00;102534.00;;;;5072379;28;20048;-65
2022/03/25 04:30:44;;;;;;;45.13;31.13;;;17.80;41.30;17.00;102538.00;;;;5072715;28;20397;-65
2022/03/25 04:33:33;;;;;;;45.83;30.80;;;17.80;41.30;17.00;102533.00;;;;5058706;28;20049;-65
2022/03/25 04:36:19;;;;;;;43.28;30.58;;;17.80;41.40;17.00;102542.00;;;;5062865;28;20045;-65
2022/03/25 04:39:05;;;;;;;44.42;30.92;;;17.80;41.30;17.00;102540.00;;;;5055290;28;20376;-65
2022/03/25 04:41:51;;;;;;;43.63;30.98;;;17.80;41.40;17.00;102531.00;;;;5042361;28;20029;-65
2022/03/25 04:44:37;;;;;;;48.38;32.25;;;17.80;41.30;16.90;102535.00;;;;5055828;28;20040;-64
2022/03/25 04:47:23;;;;;;;46.00;31.45;;;17.80;41.40;16.90;102534.00;;;;5054507;28;20045;-64
2022/03/25 04:50:09;;;;;;;43.95;30.58;;;17.70;41.30;16.90;102535.00;;;;5054003;28;20056;-65
2022/03/25 04:52:56;;;;;;;46.17;31.10;;;17.70;41.30;16.90;102531.00;;;;5056010;28;20040;-65
2022/03/25 04:55:42;;;;;;;41.97;30.45;;;17.80;41.40;16.90;102534.00;;;;5033467;28;20047;-65
2022/03/25 04:58:28;;;;;;;43.22;30.15;;;17.70;41.30;16.90;102524.00;;;;5058021;28;20033;-65
2022/03/25 05:01:14;;;;;;;43.92;30.80;;;17.70;41.30;16.90;102527.00;;;;5056171;28;20063;-65
2022/03/25 05:04:00;;;;;;;46.30;31.63;;;17.70;41.30;16.90;102522.00;;;;5059137;28;20037;-65
2022/03/25 05:06:46;;;;;;;46.20;31.52;;;17.70;41.40;16.90;102532.00;;;;5054812;28;20441;-65
2022/03/25 05:09:33;;;;;;;44.72;31.45;;;17.70;42.10;16.90;102535.00;;;;5044208;28;20044;-65
2022/03/25 05:12:19;;;;;;;48.27;32.30;;;17.70;41.40;16.90;102542.00;;;;5055894;28;20575;-65
2022/03/25 05:15:06;;;;;;;44.78;31.27;;;17.70;41.40;16.80;102540.00;;;;5052470;28;20291;-65
2022/03/25 05:17:52;;;;;;;47.25;31.92;;;17.70;41.50;16.80;102537.00;;;;5038765;28;20037;-65
2022/03/25 05:20:39;;;;;;;44.67;31.27;;;17.60;41.40;16.80;102548.00;;;;5060756;28;20050;-65
2022/03/25 05:23:25;;;;;;;49.22;31.08;;;17.60;41.40;16.80;102547.00;;;;5060700;28;20040;-65
2022/03/25 05:26:11;;;;;;;45.13;31.88;;;17.60;41.50;16.80;102556.00;;;;5059957;28;20109;-65
2022/03/25 05:28:57;;;;;;;46.33;31.90;;;17.60;41.40;16.80;102563.00;;;;5055276;28;20048;-65
2022/03/25 05:31:44;;;;;;;48.90;33.35;;;17.60;41.40;16.80;102564.00;;;;5041787;28;20111;-65
2022/03/25 05:34:30;;;;;;;47.60;31.80;;;17.60;41.50;16.80;102566.00;;;;5043957;28;20033;-65
2022/03/25 05:37:16;;;;;;;45.28;31.70;;;17.60;41.40;16.80;102574.00;;;;5064523;28;20083;-65
2022/03/25 05:40:02;;;;;;;45.97;32.70;;;17.60;41.40;16.80;102563.00;;;;5058080;28;20383;-65
2022/03/25 05:42:49;;;;;;;48.33;34.08;;;17.60;41.40;16.80;102572.00;;;;5054165;28;20041;-65
2022/03/25 05:45:35;;;;;;;46.65;32.92;;;17.60;41.40;16.80;102571.00;;;;5066724;28;20052;-65
2022/03/25 05:48:21;;;;;;;46.45;32.67;;;17.60;41.40;16.80;102573.00;;;;5057878;28;20040;-65
2022/03/25 05:51:07;;;;;;;45.65;31.75;;;17.60;41.40;16.80;102570.00;;;;5059915;28;20040;-65
2022/03/25 05:53:53;;;;;;;49.65;33.75;;;17.60;41.40;16.80;102570.00;;;;5060438;28;20045;-65
2022/03/25 05:56:39;;;;;;;50.03;34.00;;;17.60;41.40;16.80;102565.00;;;;5056092;28;20116;-65
2022/03/25 05:59:25;;;;;;;46.75;32.95;;;17.50;41.30;16.80;102571.00;;;;5065295;28;20041;-65
2022/03/25 06:02:11;;;;;;;50.95;33.67;;;17.60;41.50;16.80;102574.00;;;;5052331;28;20482;-65
2022/03/25 06:04:58;;;;;;;50.22;33.05;;;17.60;41.50;16.80;102578.00;;;;5063372;28;20549;-65
2022/03/25 06:07:45;;;;;;;47.65;33.05;;;17.60;41.40;16.70;102576.00;;;;5060321;28;20127;-65
2022/03/25 06:10:31;;;;;;;47.20;32.53;;;17.70;41.50;16.70;102583.00;;;;5052186;28;20049;-65
2022/03/25 06:13:18;;;;;;;49.20;33.55;;;17.50;41.40;16.70;102581.00;;;;5064286;28;20041;-64
2022/03/25 06:16:04;;;;;;;51.75;33.80;;;17.60;41.40;16.70;102577.00;;;;5044034;28;20044;-64
2022/03/25 06:18:52;;;;;;;47.33;33.25;;;17.60;41.40;16.70;102580.00;;;;5061598;28;20098;-65
2022/03/25 06:21:39;;;;;;;47.22;34.40;;;17.60;41.40;16.70;102581.00;;;;5063324;28;20036;-65
2022/03/25 06:24:25;;;;;;;48.25;33.97;;;17.60;41.40;16.70;102577.00;;;;5056174;28;20049;-65
2022/03/25 06:27:11;;;;;;;49.60;34.03;;;17.60;41.40;16.70;102583.00;;;;5066276;28;20048;-65
2022/03/25 06:29:57;;;;;;;49.35;34.70;;;17.60;41.40;16.70;102572.00;;;;5055472;28;20048;-65
2022/03/25 06:32:43;;;;;;;49.47;35.13;;;17.50;41.40;16.70;102586.00;;;;5058225;28;20056;-65
2022/03/25 06:35:30;;;;;;;53.22;36.00;;;17.50;41.40;16.70;102582.00;;;;5063752;28;20036;-65
2022/03/25 06:38:16;;;;;;;51.83;34.83;;;17.50;41.40;16.70;102586.00;;;;5058926;28;20048;-65
2022/03/25 06:41:02;;;;;;;49.25;33.90;;;17.60;41.50;16.70;102586.00;;;;5063759;28;20402;-65
2022/03/25 06:43:49;;;;;;;51.17;35.03;;;17.50;41.50;16.70;102596.00;;;;5062348;28;20505;-65
2022/03/25 06:46:36;;;;;;;53.03;35.58;;;17.50;41.40;16.70;102597.00;;;;5066407;28;20047;-65
2022/03/25 06:49:22;;;;;;;51.58;35.58;;;17.50;41.40;16.70;102593.00;;;;5051365;28;20498;-65
2022/03/25 06:52:09;;;;;;;52.22;35.67;;;17.50;41.50;16.70;102596.00;;;;5056072;28;20043;-65
2022/03/25 06:54:56;;;;;;;49.70;34.77;;;17.50;41.40;16.70;102595.00;;;;5057611;28;20456;-65
2022/03/25 06:57:42;;;;;;;49.33;34.40;;;17.50;41.50;16.70;102597.00;;;;5028395;28;20560;-65
2022/03/25 07:00:29;;;;;;;50.30;34.75;;;17.50;41.50;16.70;102605.00;;;;5049017;28;20273;-65
2022/03/25 07:03:15;;;;;;;52.10;36.58;;;17.50;41.40;16.70;102599.00;;;;5041711;28;20458;-65
2022/03/25 07:06:01;;;;;;;54.70;36.80;;;17.50;41.40;16.70;102614.00;;;;5058743;28;20043;-65
2022/03/25 07:08:48;;;;;;;50.50;35.27;;;17.50;41.50;16.70;102609.00;;;;5049817;28;20055;-65
2022/03/25 07:11:35;;;;;;;51.88;35.47;;;17.50;41.50;16.70;102617.00;;;;5057243;28;20040;-65
2022/03/25 07:14:21;;;;;;;49.17;34.30;;;17.50;41.50;16.70;102623.00;;;;5058785;28;20052;-65
2022/03/25 07:17:07;;;;;;;50.20;34.25;;;17.50;41.50;16.70;102626.00;;;;5061624;28;20092;-65
2022/03/25 07:19:53;;;;;;;52.03;36.42;;;17.50;41.50;16.70;102628.00;;;;5051936;28;20477;-65
2022/03/25 07:22:47;;;;;;;51.17;36.25;;;17.50;41.50;16.70;102630.00;;;;5053597;28;20036;-65
2022/03/25 07:25:33;;;;;;;52.17;35.90;;;17.60;41.60;16.70;102639.00;;;;5068013;28;20040;-65
2022/03/25 07:28:19;;;;;;;53.65;35.05;;;17.50;41.50;16.70;102643.00;;;;5052999;28;20040;-65
2022/03/25 07:31:06;;;;;;;54.85;36.33;;;17.50;41.50;16.70;102646.00;;;;5058990;28;20040;-65
2022/03/25 07:33:52;;;;;;;51.05;35.15;;;17.60;41.60;16.70;102648.00;;;;5056752;28;20045;-65
2022/03/25 07:36:38;;;;;;;52.45;36.47;;;17.60;41.50;16.70;102653.00;;;;5053750;28;20044;-65
2022/03/25 07:39:24;;;;;;;50.55;34.55;;;17.70;41.60;16.70;102651.00;;;;5059438;28;20045;-65
2022/03/25 07:42:10;;;;;;;53.97;36.15;;;17.60;41.50;16.70;102655.00;;;;5055596;28;20519;-65
2022/03/25 07:44:57;;;;;;;51.53;35.88;;;17.60;41.50;16.70;102659.00;;;;5055318;28;20040;-65
2022/03/25 07:47:48;;;;;;;49.83;35.92;;;17.60;41.50;16.70;102662.00;;;;5053550;28;20040;-65
2022/03/25 07:50:34;;;;;;;51.83;36.17;;;17.60;41.60;16.70;102666.00;;;;5055829;28;20075;-65
2022/03/25 07:53:21;;;;;;;51.40;35.70;;;17.70;41.60;16.80;102667.00;;;;5039755;28;20051;-65
2022/03/25 07:56:21;;;;;;;52.75;36.55;;;17.60;41.50;16.80;102666.00;;;;5046509;28;20060;-65
2022/03/25 07:59:11;;;;;;;52.72;36.25;;;17.50;41.50;16.80;102681.00;;;;5040423;28;20054;-65
2022/03/25 08:02:01;;;;;;;54.05;36.97;;;17.70;41.60;16.80;102687.00;;;;5042045;28;20052;-65
2022/03/25 08:04:47;;;;;;;52.00;35.60;;;17.70;41.60;16.80;102688.00;;;;5052559;28;20053;-65
2022/03/25 08:07:43;;;;;;;53.75;36.47;;;17.70;41.60;16.80;102687.00;;;;5056292;28;20041;-65
2022/03/25 08:10:29;;;;;;;52.08;35.88;;;17.70;41.70;16.80;102694.00;;;;5046206;28;20481;-65
2022/03/25 08:13:16;;;;;;;54.83;36.30;;;17.70;41.60;16.80;102694.00;;;;5040692;28;20037;-65
2022/03/25 08:16:02;;;;;;;51.97;35.28;;;17.70;41.60;16.80;102698.00;;;;5056388;28;20068;-65
2022/03/25 08:18:48;;;;;;;56.25;36.60;;;17.70;41.60;16.80;102700.00;;;;5054188;28;20033;-65
2022/03/25 08:21:34;;;;;;;53.60;35.78;;;17.70;41.60;16.80;102699.00;;;;5051611;28;20044;-65
2022/03/25 08:30:30;;;;;;;54.47;36.58;;;17.70;41.70;16.80;102716.00;;;;5064241;28;20387;-65
2022/03/25 08:33:17;;;;;;;49.95;34.75;;;17.70;41.60;16.80;102718.00;;;;5054367;28;20115;-65
2022/03/25 08:36:03;;;;;;;49.97;34.80;;;17.80;41.70;16.90;102709.00;;;;5047000;28;20049;-65
2022/03/25 08:38:49;;;;;;;49.45;33.95;;;17.80;41.70;16.90;102712.00;;;;5064647;28;20039;-65
2022/03/25 08:41:35;;;;;;;49.20;34.35;;;17.80;41.80;16.90;102709.00;;;;5057788;28;20493;-65
2022/03/25 08:44:21;;;;;;;54.83;36.38;;;17.90;41.70;16.90;102711.00;;;;5057050;28;20036;-65
2022/03/25 08:47:07;;;;;;;51.83;35.50;;;17.80;41.70;16.90;102707.00;;;;5051055;28;20050;-65
2022/03/25 08:49:53;;;;;;;49.22;34.25;;;17.80;41.70;16.90;102710.00;;;;5055530;28;20044;-65
2022/03/25 08:52:40;;;;;;;55.58;35.08;;;17.80;41.80;16.90;102716.00;;;;5046827;28;20041;-65
2022/03/25 08:55:26;;;;;;;47.58;33.38;;;17.80;41.70;16.90;102706.00;;;;5059198;28;20410;-65
2022/03/25 08:58:12;;;;;;;51.83;34.40;;;17.90;41.80;16.90;102703.00;;;;5057507;28;20041;-65
2022/03/25 09:00:59;;;;;;;51.58;34.55;;;17.90;41.70;16.90;102708.00;;;;5052574;28;20048;-65
2022/03/25 09:03:45;;;;;;;46.78;33.40;;;17.90;41.80;16.90;102705.00;;;;5069556;28;20036;-65
2022/03/25 09:06:31;;;;;;;46.97;32.55;;;17.90;41.80;16.90;102708.00;;;;5060336;28;20494;-65
2022/03/25 09:09:17;;;;;;;51.10;33.72;;;17.90;41.80;16.90;102702.00;;;;5056555;28;20043;-65
2022/03/25 09:12:03;;;;;;;48.35;32.90;;;17.90;41.80;16.90;102711.00;;;;5063874;28;20052;-65
2022/03/25 09:14:49;;;;;;;47.60;32.70;;;17.90;41.80;16.90;102714.00;;;;5064542;28;20141;-66
2022/03/25 09:17:36;;;;;;;50.10;34.10;;;17.90;41.80;17.00;102716.00;;;;5031371;28;20060;-65
2022/03/25 09:20:22;;;;;;;52.38;34.78;;;17.90;41.80;17.00;102719.00;;;;5043561;28;20048;-65
2022/03/25 09:23:08;;;;;;;48.75;33.00;;;17.90;41.80;17.00;102715.00;;;;5058611;28;20048;-66
2022/03/25 09:25:55;;;;;;;48.67;33.47;;;18.00;41.80;17.00;102715.00;;;;5059930;28;20115;-65
2022/03/25 09:28:41;;;;;;;47.80;31.70;;;17.90;41.80;17.00;102716.00;;;;5062102;28;20063;-65
2022/03/25 09:31:27;;;;;;;48.75;32.83;;;18.00;41.90;17.00;102723.00;;;;5063401;28;20123;-66
2022/03/25 09:37:17;;;;;;;46.70;32.72;;;18.00;41.90;17.00;102723.00;;;;5058651;28;20044;-65
2022/03/25 09:40:10;;;;;;;52.88;34.10;;;18.00;41.90;17.00;102717.00;;;;5064800;28;20056;-65
2022/03/25 09:42:57;;;;;;;46.38;32.38;;;18.00;42.00;17.00;102720.00;;;;5042487;28;20505;-65
2022/03/25 09:45:43;;;;;;;47.80;32.03;;;18.00;41.90;17.00;102724.00;;;;5076000;28;20413;-66
2022/03/25 09:48:29;;;;;;;45.40;31.20;;;18.00;41.90;17.00;102717.00;;;;5060766;28;20037;-65
2022/03/25 09:51:16;;;;;;;45.03;32.05;;;18.00;41.90;17.00;102720.00;;;;5059220;28;20537;-66
2022/03/25 09:54:02;;;;;;;48.05;31.63;;;18.00;41.90;17.10;102718.00;;;;5052971;28;20044;-65
2022/03/25 09:56:48;;;;;;;47.30;32.10;;;18.00;41.90;17.10;102728.00;;;;5037976;28;20068;-65
2022/03/25 09:59:34;;;;;;;45.20;30.92;;;18.10;42.00;17.10;102724.00;;;;5062518;28;20473;-65
2022/03/25 10:02:20;;;;;;;43.72;30.13;;;18.10;42.00;17.10;102720.00;;;;5058909;28;20768;-65
2022/03/25 10:05:16;;;;;;;46.50;32.85;;;18.10;42.00;17.10;102722.00;;;;5057718;28;20048;-65
2022/03/25 10:08:02;;;;;;;44.35;30.15;;;18.10;42.00;17.10;102725.00;;;;5062659;28;20041;-65
2022/03/25 10:10:49;;;;;;;47.25;30.52;;;18.10;41.90;17.10;102716.00;;;;5054344;28;20052;-65
2022/03/25 10:13:35;;;;;;;50.75;32.47;;;18.10;41.90;17.10;102717.00;;;;5046469;28;20047;-65
2022/03/25 10:16:28;;;;;;;44.47;30.02;;;18.10;41.90;17.10;102717.00;;;;5063805;28;20759;-66
2022/03/25 10:19:19;;;;;;;45.05;29.30;;;18.10;42.00;17.10;102718.00;;;;5042787;28;20052;-65
2022/03/25 10:22:06;;;;;;;41.95;28.55;;;18.10;42.00;17.10;102722.00;;;;5059078;28;20047;-66
2022/03/25 10:24:52;;;;;;;42.33;28.48;;;18.20;42.00;17.10;102719.00;;;;5057562;28;20036;-65
2022/03/25 10:27:38;;;;;;;42.25;29.58;;;18.20;41.90;17.10;102708.00;;;;5044645;28;20426;-65
2022/03/25 10:30:36;;;;;;;44.35;29.02;;;18.20;41.90;17.10;102715.00;;;;5035422;28;20107;-65
2022/03/25 10:33:57;;;;;;;39.67;27.13;;;18.20;41.90;17.10;102717.00;;;;5053334;28;20441;-65
2022/03/25 10:36:43;;;;;;;44.47;29.10;;;18.20;42.00;17.10;102712.00;;;;5046030;28;20496;-65
2022/03/25 10:39:29;;;;;;;40.63;28.10;;;18.20;42.00;17.10;102710.00;;;;5033573;28;20048;-65
2022/03/25 10:42:15;;;;;;;41.05;28.25;;;18.20;41.80;17.10;102708.00;;;;5041985;28;20128;-65
2022/03/25 10:45:01;;;;;;;42.53;29.15;;;18.20;41.70;17.20;102703.00;;;;5059466;28;20624;-66
2022/03/25 10:47:47;;;;;;;41.03;26.42;;;18.20;41.80;17.10;102703.00;;;;5048957;28;20060;-65
2022/03/25 10:50:34;;;;;;;37.42;26.23;;;18.20;41.70;17.20;102699.00;;;;5044974;28;20054;-66
2022/03/25 10:53:27;;;;;;;38.15;25.48;;;18.20;41.70;17.20;102707.00;;;;5052260;28;20409;-65
2022/03/25 10:56:13;;;;;;;39.08;26.15;;;18.20;41.70;17.20;102701.00;;;;5077485;28;20041;-65
2022/03/25 10:58:59;;;;;;;39.10;26.05;;;18.20;41.70;17.20;102701.00;;;;5078724;28;20028;-66
2022/03/25 11:01:45;;;;;;;36.35;25.42;;;18.20;41.60;17.20;102703.00;;;;5074007;28;20080;-66
2022/03/25 11:04:31;;;;;;;36.35;25.17;;;18.20;41.70;17.20;102705.00;;;;5078260;28;20036;-66
2022/03/25 11:07:18;;;;;;;34.53;23.17;;;18.20;41.60;17.20;102694.00;;;;5061778;28;20045;-66
2022/03/25 11:10:04;;;;;;;37.20;23.70;;;18.30;41.60;17.20;102705.00;;;;5064275;28;20120;-65
2022/03/25 11:12:51;;;;;;;36.22;23.52;;;18.20;41.60;17.20;102703.00;;;;5059729;28;20044;-65
2022/03/25 11:15:38;;;;;;;34.25;22.80;;;18.20;41.60;17.20;102704.00;;;;5063947;28;20122;-65
2022/03/25 11:18:27;;;;;;;36.73;23.40;;;18.30;41.60;17.20;102696.00;;;;5073197;28;20052;-66
2022/03/25 11:21:13;;;;;;;36.10;23.50;;;18.30;41.70;17.20;102698.00;;;;5077698;28;20524;-65
2022/03/25 11:23:59;;;;;;;33.72;22.75;;;18.30;41.70;17.20;102697.00;;;;5061537;28;20773;-65
2022/03/25 11:26:48;;;;;;;32.58;21.73;;;18.30;41.60;17.20;102693.00;;;;5060300;28;20089;-65
2022/03/25 11:29:34;;;;;;;34.53;23.95;;;18.30;41.70;17.20;102703.00;;;;5078835;28;20039;-66
2022/03/25 11:32:20;;;;;;;31.92;22.58;;;18.30;41.70;17.20;102693.00;;;;5074354;28;20047;-66
2022/03/25 11:35:06;;;;;;;34.70;22.60;;;18.30;41.70;17.30;102698.00;;;;5073881;28;20048;-65
2022/03/25 11:38:10;;;;;;;33.30;22.23;;;18.30;41.80;17.30;102694.00;;;;5071176;28;20524;-65
2022/03/25 11:40:56;;;;;;;30.98;20.35;;;18.30;41.80;17.30;102692.00;;;;5071636;28;20046;-65
2022/03/25 11:43:43;;;;;;;31.15;21.05;;;18.40;41.80;17.30;102691.00;;;;5061018;28;20063;-65
2022/03/25 11:46:29;;;;;;;34.38;22.05;;;18.40;41.80;17.30;102692.00;;;;5043313;28;20120;-66
2022/03/25 11:49:17;;;;;;;30.88;20.70;;;18.40;41.90;17.30;102696.00;;;;5057788;28;20046;-65
2022/03/25 11:52:18;;;;;;;32.42;21.08;;;18.40;41.90;17.30;102691.00;;;;5065668;28;20043;-66
2022/03/25 11:55:05;;;;;;;29.55;19.27;;;18.40;42.00;17.30;102688.00;;;;5076822;28;20048;-65
2022/03/25 11:57:51;;;;;;;29.88;19.38;;;18.40;41.90;17.30;102681.00;;;;5076057;28;20042;-66
2022/03/25 12:00:37;;;;;;;28.83;18.77;;;18.40;41.90;17.30;102671.00;;;;5076150;28;20028;-65
2022/03/25 12:03:49;;;;;;;31.10;20.23;;;18.40;41.80;17.30;102680.00;;;;5064321;28;20043;-65
2022/03/25 12:07:00;;;;;;;29.77;18.30;;;18.40;41.90;17.30;102674.00;;;;5062733;28;20048;-65